Flight Track Log - Related Links

Times and Time Zones

All times are in EDT time to prevent confusion due to time zone crossing. See the N948CE flight status page for this flight to view local times or setup timezone preferences in your user account.

Time Position Orientation Groundspeed Altitude Reporting Facility
EDT Latitude Longitude Course Direction KTS MPH feet Rate Location/Type
Wed 03:01:35 PM 40.0767 -83.0822 265° West 110 127 1,200  Level Indianapolis Center
Wed 03:02:11 PM 40.0744 -83.1144 265° West 145 167 2,000 1,385 Climbing Indianapolis Center
Wed 03:03:06 PM 40.0792 -83.1550 279° West 171 197 3,300 1,770 Climbing Indianapolis Center
Wed 03:04:13 PM 40.1356 -83.1681 350° North 177 204 5,600 1,935 Climbing Indianapolis Center
Wed 03:05:10 PM 40.1794 -83.1442 23° Northeast 175 201 7,300 1,613 Climbing Indianapolis Center
Wed 03:06:12 PM 40.2244 -83.1047 34° Northeast 191 220 8,800 1,306 Climbing Indianapolis Center
Wed 03:07:14 PM 40.2731 -83.0639 33° Northeast 204 235 10,000 1,548 Climbing Indianapolis Center
Wed 03:08:16 PM 40.3231 -83.0236 32° Northeast 207 238 12,000 1,694 Climbing Indianapolis Center
Wed 03:09:18 PM 40.3667 -82.9850 34° Northeast 190 219 13,500 919 Climbing Indianapolis Center
Wed 03:10:20 PM 40.4139 -83.0042 343° North 175 201 13,900 194 Climbing Indianapolis Center
Wed 03:11:22 PM 40.4650 -83.0428 330° Northwest 204 235 13,900  Level Indianapolis Center
Wed 03:12:24 PM 40.5181 -83.0789 333° Northwest 203 234 13,900  Level Indianapolis Center
Wed 03:13:26 PM 40.5678 -83.1156 331° Northwest 202 232 13,900  Level Indianapolis Center
Wed 03:14:28 PM 40.6256 -83.1569 331° Northwest 201 231 13,900 48 Level Indianapolis Center
Wed 03:15:31 PM 40.6722 -83.1906 331° Northwest 202 232 14,000 -48 Climbing Indianapolis Center
Wed 03:16:33 PM 40.7222 -83.2267 331° Northwest 203 234 13,800 -629 Descending Indianapolis Center
Wed 03:17:35 PM 40.7731 -83.2633 331° Northwest 206 237 12,700 -871 Descending Indianapolis Center
Wed 03:18:37 PM 40.8300 -83.3019 333° Northwest 212 244 12,000 -339 Descending Indianapolis Center
Wed 03:19:39 PM 40.8747 -83.3353 331° Northwest 190 219 12,000  Level Indianapolis Center
Wed 03:20:07 PM 40.8986 -83.3550 328° Northwest 184 212 12,000 -68 Level Cleveland Center
Wed 03:21:07 PM 40.9333 -83.3811 330° Northwest 173 199 11,900  Descending Cleveland Center
Wed 03:21:43 PM 40.9572 -83.3953 336° Northwest 170 196 12,000 167 Climbing Indianapolis Center

Login

Don't have an account? Register now (free) for customized features, flight alerts, and more!